Time;durP1;ratioP1;P1;durP2;ratioP2;P2;SDS_P1;SDS_P2;PMS_P1;PMS_P2;Temp;Humidity;BMP_temperature;BMP_pressure;BME280_temperature;BME280_humidity;BME280_pressure;Samples;Min_cycle;Max_cycle;Signal;HPM_P1;HPM_P2
2023/05/20 00:00:35;;;;;;;0.20;0.20;;;11.90;99.90;;;;;;7406841;19;20339;-79
2023/05/20 00:03:04;;;;;;;0.00;0.00;;;13.20;99.90;;;;;;7405895;19;19929;-79
2023/05/20 00:05:33;;;;;;;0.00;0.00;;;13.20;99.90;;;;;;7406402;19;19980;-78
2023/05/20 00:08:06;;;;;;;0.00;0.00;;;13.00;99.90;;;;;;7407165;19;20287;-79
2023/05/20 00:10:37;;;;;;;0.60;0.30;;;13.10;99.90;;;;;;7407556;19;19984;-79
2023/05/20 00:13:06;;;;;;;0.00;0.00;;;13.00;99.90;;;;;;7406325;19;19945;-79
2023/05/20 00:15:36;;;;;;;0.00;0.00;;;13.00;99.90;;;;;;7407000;19;19929;-79
2023/05/20 00:18:05;;;;;;;0.00;0.00;;;13.00;99.90;;;;;;7406690;19;19926;-79
2023/05/20 00:20:34;;;;;;;0.00;0.00;;;13.00;99.90;;;;;;7406031;19;19918;-79
2023/05/20 00:23:03;;;;;;;0.10;0.10;;;12.90;99.90;;;;;;7406201;19;19918;-79
2023/05/20 00:25:32;;;;;;;0.22;0.22;;;12.80;99.90;;;;;;7404417;19;19918;-78
2023/05/20 00:28:04;;;;;;;0.00;0.00;;;12.70;99.90;;;;;;7405725;19;20301;-79
2023/05/20 00:30:33;;;;;;;0.20;0.20;;;12.70;99.90;;;;;;7406449;19;19918;-78
2023/05/20 00:33:02;;;;;;;0.20;0.20;;;12.80;99.90;;;;;;7405608;19;19928;-78
2023/05/20 00:35:32;;;;;;;0.10;0.10;;;12.60;99.90;;;;;;7406552;19;19983;-78
2023/05/20 00:38:01;;;;;;;0.00;0.00;;;12.70;99.90;;;;;;7407755;19;20351;-79
2023/05/20 00:40:30;;;;;;;0.38;0.28;;;12.60;99.90;;;;;;7412858;19;20321;-79
2023/05/20 00:42:59;;;;;;;0.57;0.57;;;12.70;99.90;;;;;;7412161;19;19974;-79
2023/05/20 00:45:31;;;;;;;0.00;0.00;;;12.80;99.90;;;;;;7406969;19;19930;-79
2023/05/20 00:48:02;;;;;;;;;;;12.60;99.90;;;;;;7407246;19;19915;-79
2023/05/20 00:50:31;;;;;;;0.00;0.00;;;12.60;99.90;;;;;;7403892;19;19947;-80
2023/05/20 00:53:01;;;;;;;0.00;0.00;;;12.50;99.90;;;;;;7406010;19;19982;-80
2023/05/20 00:55:30;;;;;;;0.43;0.10;;;12.60;99.90;;;;;;7406313;19;19918;-79
2023/05/20 00:57:59;;;;;;;0.00;0.00;;;12.50;99.90;;;;;;7405873;19;19982;-79
2023/05/20 01:00:30;;;;;;;0.15;0.15;;;12.50;99.90;;;;;;7406385;19;19930;-80
2023/05/20 01:03:00;;;;;;;0.00;0.00;;;12.50;99.90;;;;;;7404279;19;19922;-79
2023/05/20 01:05:28;;;;;;;0.00;0.00;;;12.50;99.90;;;;;;7405558;19;20026;-79
2023/05/20 01:07:57;;;;;;;0.00;0.00;;;12.50;99.90;;;;;;7405393;19;19974;-79
2023/05/20 01:10:29;;;;;;;0.00;0.00;;;12.50;99.90;;;;;;7405455;19;19922;-79
2023/05/20 01:12:59;;;;;;;;;;;12.40;99.90;;;;;;7407549;19;19925;-79
2023/05/20 01:15:32;;;;;;;0.00;0.00;;;12.60;99.90;;;;;;7405202;19;20263;-79
2023/05/20 01:18:04;;;;;;;0.30;0.15;;;12.50;99.90;;;;;;7403029;19;19926;-79
2023/05/20 01:20:34;;;;;;;0.00;0.00;;;12.60;99.90;;;;;;7402998;19;20237;-79
2023/05/20 01:23:06;;;;;;;0.10;0.10;;;12.50;99.90;;;;;;7402049;19;19974;-79
2023/05/20 01:25:35;;;;;;;0.52;0.52;;;12.40;99.90;;;;;;7403877;19;19923;-79
2023/05/20 01:28:04;;;;;;;0.00;0.00;;;12.50;99.90;;;;;;7403771;19;19939;-79
2023/05/20 01:30:39;;;;;;;0.00;0.00;;;12.40;99.90;;;;;;7403043;19;19946;-80
2023/05/20 01:33:13;;;;;;;0.00;0.00;;;12.50;99.90;;;;;;7405119;19;19918;-79
2023/05/20 01:35:44;;;;;;;1.45;0.90;;;12.40;99.90;;;;;;7405393;19;19929;-79
2023/05/20 01:38:17;;;;;;;0.65;0.52;;;12.60;99.90;;;;;;7403904;19;19914;-79
2023/05/20 01:40:48;;;;;;;0.20;0.20;;;12.80;99.90;;;;;;7404220;19;19918;-79
2023/05/20 01:43:18;;;;;;;0.00;0.00;;;12.50;99.90;;;;;;7402429;19;20267;-79
2023/05/20 01:45:47;;;;;;;0.00;0.00;;;12.50;99.90;;;;;;7404229;19;19925;-79
2023/05/20 01:48:16;;;;;;;0.75;0.75;;;12.40;99.90;;;;;;7403704;19;19970;-79
2023/05/20 01:50:45;;;;;;;0.00;0.00;;;12.50;99.90;;;;;;7403744;19;19974;-79
2023/05/20 01:53:16;;;;;;;0.00;0.00;;;12.40;99.90;;;;;;7403589;19;19986;-79
2023/05/20 01:55:45;;;;;;;0.00;0.00;;;12.40;99.90;;;;;;7404843;19;20605;-79
2023/05/20 01:58:14;;;;;;;0.05;0.05;;;12.50;99.90;;;;;;7404302;19;19942;-80
2023/05/20 02:00:43;;;;;;;0.43;0.20;;;12.40;99.90;;;;;;7403917;19;19978;-80
2023/05/20 02:03:12;;;;;;;0.00;0.00;;;12.50;99.90;;;;;;7405210;19;19935;-79
2023/05/20 02:05:41;;;;;;;0.00;0.00;;;12.50;99.90;;;;;;7406247;19;19914;-80
2023/05/20 02:08:10;;;;;;;1.05;1.05;;;12.00;99.90;;;;;;7404167;19;19921;-79
2023/05/20 02:10:42;;;;;;;0.00;0.00;;;12.40;99.90;;;;;;7404825;19;20309;-79
2023/05/20 02:13:11;;;;;;;0.00;0.00;;;12.30;99.90;;;;;;7402752;19;19907;-79
2023/05/20 02:15:43;;;;;;;0.17;0.17;;;12.40;99.90;;;;;;7402746;19;19915;-80
2023/05/20 02:18:17;;;;;;;0.00;0.00;;;12.30;99.90;;;;;;7403756;19;19918;-79
2023/05/20 02:20:46;;;;;;;0.00;0.00;;;12.30;99.90;;;;;;7406470;19;19922;-79
2023/05/20 02:23:15;;;;;;;0.00;0.00;;;12.30;99.90;;;;;;7404723;19;19939;-80
2023/05/20 02:25:46;;;;;;;0.00;0.00;;;12.20;99.90;;;;;;7403085;19;19994;-79
2023/05/20 02:28:16;;;;;;;0.20;0.17;;;12.20;99.90;;;;;;7402004;19;19911;-79
2023/05/20 02:30:45;;;;;;;0.00;0.00;;;11.90;99.90;;;;;;7403008;19;20348;-79
2023/05/20 02:33:15;;;;;;;0.00;0.00;;;12.30;99.90;;;;;;7403219;19;19914;-79
2023/05/20 02:35:45;;;;;;;0.40;0.40;;;12.20;99.90;;;;;;7403451;19;20245;-79
2023/05/20 02:38:14;;;;;;;0.00;0.00;;;12.20;99.90;;;;;;7401493;19;19915;-79
2023/05/20 02:40:48;;;;;;;0.40;0.40;;;12.10;99.90;;;;;;7401728;19;20344;-79
2023/05/20 02:43:17;;;;;;;0.00;0.00;;;12.20;99.90;;;;;;7401663;19;19921;-79
2023/05/20 02:45:46;;;;;;;0.00;0.00;;;12.30;99.90;;;;;;7402995;19;19974;-80
2023/05/20 02:48:15;;;;;;;0.15;0.15;;;12.20;99.90;;;;;;7402516;19;20090;-80
2023/05/20 02:50:44;;;;;;;0.00;0.00;;;12.10;99.90;;;;;;7401920;19;19928;-79
2023/05/20 02:53:15;;;;;;;0.00;0.00;;;12.10;99.90;;;;;;7401926;19;20643;-80
2023/05/20 02:55:46;;;;;;;0.00;0.00;;;12.10;99.90;;;;;;7401766;19;19929;-79
2023/05/20 02:58:17;;;;;;;0.00;0.00;;;12.10;99.90;;;;;;7402627;19;19959;-79
2023/05/20 03:00:46;;;;;;;0.00;0.00;;;12.20;99.90;;;;;;7402376;19;20399;-79
2023/05/20 03:03:15;;;;;;;0.00;0.00;;;12.10;99.90;;;;;;7400145;19;19918;-79
2023/05/20 03:05:44;;;;;;;0.55;0.40;;;12.20;99.90;;;;;;7400619;19;19915;-79
2023/05/20 03:08:14;;;;;;;0.00;0.00;;;12.10;99.90;;;;;;7402181;19;20323;-79
2023/05/20 03:10:43;;;;;;;0.00;0.00;;;12.20;99.90;;;;;;7401365;19;19923;-79
2023/05/20 03:13:14;;;;;;;0.00;0.00;;;12.20;99.90;;;;;;7402941;19;19921;-79
2023/05/20 03:15:45;;;;;;;0.00;0.00;;;12.10;99.90;;;;;;7408336;19;20353;-79
2023/05/20 03:18:15;;;;;;;0.00;0.00;;;12.00;99.90;;;;;;7407060;19;19918;-79
2023/05/20 03:20:44;;;;;;;0.00;0.00;;;12.10;99.90;;;;;;7405512;19;19925;-79
2023/05/20 03:23:13;;;;;;;0.00;0.00;;;12.00;99.90;;;;;;7405414;19;19919;-79
2023/05/20 03:25:42;;;;;;;0.00;0.00;;;12.00;99.90;;;;;;7409332;19;19923;-79
2023/05/20 03:28:11;;;;;;;0.00;0.00;;;12.10;99.90;;;;;;7407243;19;19929;-79
2023/05/20 03:30:40;;;;;;;0.00;0.00;;;12.10;99.90;;;;;;7405075;19;20339;-79
2023/05/20 03:33:12;;;;;;;0.00;0.00;;;12.00;99.90;;;;;;7407066;19;19938;-79
2023/05/20 03:35:41;;;;;;;0.00;0.00;;;12.10;99.90;;;;;;7406989;19;19919;-79
2023/05/20 03:38:10;;;;;;;0.00;0.00;;;10.50;99.90;;;;;;7407221;19;20289;-79
2023/05/20 03:40:39;;;;;;;0.00;0.00;;;12.00;99.90;;;;;;7408136;19;19923;-79
2023/05/20 03:43:08;;;;;;;0.00;0.00;;;12.00;99.90;;;;;;7404408;19;20000;-79
2023/05/20 03:45:37;;;;;;;0.00;0.00;;;12.00;99.90;;;;;;7407043;19;20303;-79
2023/05/20 03:48:06;;;;;;;0.00;0.00;;;12.00;99.90;;;;;;7405933;19;20252;-79
2023/05/20 03:50:38;;;;;;;0.00;0.00;;;12.10;99.90;;;;;;7406940;19;20264;-79
2023/05/20 03:53:07;;;;;;;0.00;0.00;;;12.10;99.90;;;;;;7407009;19;19918;-79
2023/05/20 03:55:35;;;;;;;0.00;0.00;;;12.00;99.90;;;;;;7405138;19;19982;-79
2023/05/20 03:58:04;;;;;;;0.22;0.22;;;12.00;99.90;;;;;;7406028;19;20481;-79
2023/05/20 04:00:34;;;;;;;0.00;0.00;;;12.10;99.90;;;;;;7405851;19;19918;-79
2023/05/20 04:03:04;;;;;;;0.00;0.00;;;11.90;99.90;;;;;;7405012;19;19934;-79
2023/05/20 04:05:33;;;;;;;0.30;0.20;;;11.90;99.90;;;;;;7406495;19;19918;-79
2023/05/20 04:08:05;;;;;;;0.00;0.00;;;11.90;99.90;;;;;;7407003;19;19918;-79
2023/05/20 04:10:35;;;;;;;0.00;0.00;;;12.00;99.90;;;;;;7407389;19;19923;-79
2023/05/20 04:13:03;;;;;;;0.00;0.00;;;11.80;99.90;;;;;;7407248;19;19925;-79
2023/05/20 04:15:33;;;;;;;0.00;0.00;;;11.90;99.90;;;;;;7406610;19;19911;-79
2023/05/20 04:18:02;;;;;;;0.00;0.00;;;11.90;99.90;;;;;;7405109;19;19982;-79
2023/05/20 04:20:31;;;;;;;0.00;0.00;;;11.90;99.90;;;;;;7404912;19;19978;-79
2023/05/20 04:23:00;;;;;;;0.00;0.00;;;12.00;99.90;;;;;;7405280;19;19915;-79
2023/05/20 04:25:33;;;;;;;0.00;0.00;;;11.90;99.90;;;;;;7402067;19;20271;-79
2023/05/20 04:28:03;;;;;;;0.05;0.05;;;11.80;99.90;;;;;;7405986;19;20372;-79
2023/05/20 04:30:32;;;;;;;0.00;0.00;;;11.70;99.90;;;;;;7406021;19;19918;-80
2023/05/20 04:33:02;;;;;;;0.00;0.00;;;11.80;99.90;;;;;;7406692;19;19914;-79
2023/05/20 04:35:33;;;;;;;0.00;0.00;;;11.80;99.90;;;;;;7405553;19;19950;-79
2023/05/20 04:38:02;;;;;;;0.00;0.00;;;11.80;99.90;;;;;;7406559;19;20327;-78
2023/05/20 04:40:35;;;;;;;0.00;0.00;;;10.90;99.90;;;;;;7406252;19;19992;-79
2023/05/20 04:43:04;;;;;;;0.00;0.00;;;11.70;99.90;;;;;;7403928;19;20340;-79
2023/05/20 04:45:34;;;;;;;1.08;0.47;;;11.80;99.90;;;;;;7405429;19;20369;-79
2023/05/20 04:48:04;;;;;;;0.00;0.00;;;11.90;99.90;;;;;;7404012;19;19936;-79
2023/05/20 04:50:33;;;;;;;0.00;0.00;;;11.80;99.90;;;;;;7405269;19;20003;-79
2023/05/20 04:53:02;;;;;;;0.00;0.00;;;11.90;99.90;;;;;;7406171;19;19934;-79
2023/05/20 04:55:36;;;;;;;0.08;0.08;;;11.80;99.90;;;;;;7405803;19;19915;-79
2023/05/20 04:58:06;;;;;;;0.00;0.00;;;12.00;99.90;;;;;;7404405;19;19926;-79
2023/05/20 05:00:35;;;;;;;0.00;0.00;;;11.80;99.90;;;;;;7405550;19;19929;-79
2023/05/20 05:03:04;;;;;;;0.00;0.00;;;12.00;99.90;;;;;;7402541;19;20495;-79
2023/05/20 05:05:33;;;;;;;0.00;0.00;;;11.90;99.90;;;;;;7406161;19;19923;-79
2023/05/20 05:08:02;;;;;;;0.00;0.00;;;11.80;99.90;;;;;;7405717;19;20256;-79
2023/05/20 05:10:34;;;;;;;0.00;0.00;;;11.80;99.90;;;;;;7406353;19;19924;-79
2023/05/20 05:13:03;;;;;;;0.00;0.00;;;11.80;99.90;;;;;;7405026;19;19914;-79
2023/05/20 05:15:32;;;;;;;0.00;0.00;;;11.80;99.90;;;;;;7404057;19;19926;-79
2023/05/20 05:18:01;;;;;;;0.00;0.00;;;11.80;99.90;;;;;;7403701;19;19994;-79
2023/05/20 05:20:30;;;;;;;0.00;0.00;;;11.70;99.90;;;;;;7402005;19;19922;-79
2023/05/20 05:22:59;;;;;;;0.00;0.00;;;11.80;99.90;;;;;;7402081;19;19956;-79
2023/05/20 05:25:28;;;;;;;0.00;0.00;;;11.80;99.90;;;;;;7401760;19;19930;-79
2023/05/20 05:28:00;;;;;;;0.00;0.00;;;12.00;99.90;;;;;;7404093;19;19946;-79
2023/05/20 05:30:29;;;;;;;1.10;0.47;;;11.70;99.90;;;;;;7403869;19;19978;-79
2023/05/20 05:33:00;;;;;;;0.00;0.00;;;11.70;99.90;;;;;;7405555;19;19927;-79
2023/05/20 05:35:29;;;;;;;0.00;0.00;;;11.80;99.90;;;;;;7406909;19;20341;-79
2023/05/20 05:37:58;;;;;;;0.00;0.00;;;11.60;99.90;;;;;;7403728;19;20640;-79
2023/05/20 05:40:26;;;;;;;0.00;0.00;;;11.90;99.90;;;;;;7403442;19;19959;-79
2023/05/20 05:42:59;;;;;;;0.00;0.00;;;11.90;99.90;;;;;;7404750;19;19921;-80
2023/05/20 05:45:28;;;;;;;0.00;0.00;;;11.70;99.90;;;;;;7403091;19;19974;-78
2023/05/20 05:47:57;;;;;;;0.00;0.00;;;11.90;99.90;;;;;;7403293;19;19929;-78
2023/05/20 05:50:26;;;;;;;0.00;0.00;;;11.70;99.90;;;;;;7402659;19;19922;-79
2023/05/20 05:52:55;;;;;;;0.00;0.00;;;11.90;99.90;;;;;;7403137;19;19926;-78
2023/05/20 05:55:24;;;;;;;0.00;0.00;;;11.90;99.90;;;;;;7402297;19;20435;-79
2023/05/20 05:57:54;;;;;;;0.00;0.00;;;11.90;99.90;;;;;;7402773;19;19952;-79
2023/05/20 06:00:25;;;;;;;0.00;0.00;;;11.80;99.90;;;;;;7403201;19;20340;-79
2023/05/20 06:02:55;;;;;;;0.00;0.00;;;12.00;99.90;;;;;;7403221;19;19926;-78
2023/05/20 06:05:24;;;;;;;0.52;0.52;;;11.90;99.90;;;;;;7403213;19;20528;-79
2023/05/20 06:07:53;;;;;;;0.00;0.00;;;12.00;99.90;;;;;;7402939;19;20003;-79
2023/05/20 06:10:23;;;;;;;0.00;0.00;;;12.00;99.90;;;;;;7404094;19;19982;-79
2023/05/20 06:12:52;;;;;;;0.00;0.00;;;11.80;99.90;;;;;;7403127;19;19994;-79
2023/05/20 06:15:21;;;;;;;0.00;0.00;;;12.20;99.90;;;;;;7403168;19;19935;-79
2023/05/20 06:17:52;;;;;;;0.00;0.00;;;12.00;99.90;;;;;;7402001;19;19918;-79
2023/05/20 06:20:21;;;;;;;0.00;0.00;;;11.90;99.90;;;;;;7401762;19;19982;-78
2023/05/20 06:22:50;;;;;;;0.00;0.00;;;12.10;99.90;;;;;;7402368;19;19932;-78
2023/05/20 06:25:21;;;;;;;0.00;0.00;;;12.10;99.90;;;;;;7402375;19;19977;-78
2023/05/20 06:27:50;;;;;;;0.00;0.00;;;12.10;99.90;;;;;;7402714;19;19957;-78
2023/05/20 06:30:20;;;;;;;0.00;0.00;;;12.00;99.90;;;;;;7402630;19;19930;-78
2023/05/20 06:32:51;;;;;;;0.00;0.00;;;12.40;99.90;;;;;;7402939;19;19927;-78
2023/05/20 06:35:20;;;;;;;0.00;0.00;;;12.30;99.90;;;;;;7402721;19;20699;-78
2023/05/20 06:37:49;;;;;;;0.00;0.00;;;12.40;99.90;;;;;;7401599;19;20329;-79
2023/05/20 06:40:19;;;;;;;0.00;0.00;;;12.50;99.90;;;;;;7402467;19;20267;-78
2023/05/20 06:42:47;;;;;;;0.22;0.08;;;12.40;99.90;;;;;;7401669;19;19985;-78
2023/05/20 06:45:17;;;;;;;0.00;0.00;;;11.30;99.90;;;;;;7404596;19;19932;-78
2023/05/20 06:47:47;;;;;;;0.00;0.00;;;12.40;99.90;;;;;;7402759;19;19974;-78
2023/05/20 06:50:19;;;;;;;0.00;0.00;;;12.50;99.90;;;;;;7400806;19;19955;-79
2023/05/20 06:52:48;;;;;;;0.00;0.00;;;12.50;99.90;;;;;;7401343;19;19929;-78
2023/05/20 06:55:17;;;;;;;0.00;0.00;;;12.60;99.90;;;;;;7399966;19;19994;-78
2023/05/20 06:57:46;;;;;;;0.00;0.00;;;12.60;99.90;;;;;;7400729;19;19914;-78
2023/05/20 07:00:15;;;;;;;0.05;0.05;;;12.70;99.90;;;;;;7399023;19;19922;-79
2023/05/20 07:02:45;;;;;;;0.00;0.00;;;12.60;99.90;;;;;;7403531;19;19914;-78
2023/05/20 07:05:14;;;;;;;0.00;0.00;;;12.70;99.90;;;;;;7402929;19;19982;-78
2023/05/20 07:07:45;;;;;;;0.00;0.00;;;12.80;99.90;;;;;;7402313;19;19919;-78
2023/05/20 07:10:14;;;;;;;0.00;0.00;;;12.80;99.90;;;;;;7401199;19;19914;-78
2023/05/20 07:12:43;;;;;;;0.00;0.00;;;12.20;99.90;;;;;;7401482;19;19923;-79
2023/05/20 07:15:13;;;;;;;0.00;0.00;;;12.90;99.90;;;;;;7401029;19;20311;-79
2023/05/20 07:17:42;;;;;;;0.00;0.00;;;12.90;99.90;;;;;;7401188;19;19929;-78
2023/05/20 07:20:12;;;;;;;0.00;0.00;;;13.00;99.90;;;;;;7400197;19;19986;-79
2023/05/20 07:22:41;;;;;;;0.00;0.00;;;12.80;99.90;;;;;;7398403;19;19939;-78
2023/05/20 07:25:13;;;;;;;0.00;0.00;;;13.10;99.90;;;;;;7399229;19;20318;-79
2023/05/20 07:27:42;;;;;;;0.00;0.00;;;13.00;99.90;;;;;;7400006;19;19919;-79
2023/05/20 07:30:11;;;;;;;0.00;0.00;;;13.00;99.90;;;;;;7401211;19;19922;-79
2023/05/20 07:32:41;;;;;;;0.00;0.00;;;13.10;99.90;;;;;;7400124;19;20058;-79
2023/05/20 07:35:11;;;;;;;0.00;0.00;;;13.20;99.90;;;;;;7399767;19;19919;-79
2023/05/20 07:37:40;;;;;;;0.00;0.00;;;13.20;99.90;;;;;;7400766;19;19986;-79
2023/05/20 07:40:13;;;;;;;0.00;0.00;;;13.20;99.90;;;;;;7400921;19;19939;-79
2023/05/20 07:42:42;;;;;;;0.00;0.00;;;13.30;99.90;;;;;;7399850;19;19922;-79
2023/05/20 07:45:12;;;;;;;0.00;0.00;;;13.30;99.90;;;;;;7397607;19;19925;-79
2023/05/20 07:47:42;;;;;;;0.00;0.00;;;13.40;99.90;;;;;;7399944;19;20268;-79
2023/05/20 07:50:11;;;;;;;0.10;0.10;;;13.30;99.90;;;;;;7400010;19;19926;-79
2023/05/20 07:52:40;;;;;;;0.00;0.00;;;13.40;99.90;;;;;;7400771;19;19922;-79
2023/05/20 07:55:12;;;;;;;0.00;0.00;;;13.60;99.90;;;;;;7399271;19;19987;-79
2023/05/20 07:57:41;;;;;;;0.00;0.00;;;13.50;99.90;;;;;;7399644;19;20001;-79
2023/05/20 08:00:13;;;;;;;0.00;0.00;;;13.60;99.90;;;;;;7402064;19;19974;-79
2023/05/20 08:02:42;;;;;;;;;;;13.60;99.90;;;;;;7407249;19;20444;-79
2023/05/20 08:05:11;;;;;;;0.00;0.00;;;13.70;99.90;;;;;;7403587;19;19929;-79
2023/05/20 08:07:40;;;;;;;0.00;0.00;;;13.70;99.90;;;;;;7404895;19;19933;-79
2023/05/20 08:10:13;;;;;;;0.00;0.00;;;13.80;99.90;;;;;;7406050;19;19929;-80
2023/05/20 08:12:42;;;;;;;0.00;0.00;;;13.90;99.90;;;;;;7406623;19;19910;-79
2023/05/20 08:15:12;;;;;;;0.00;0.00;;;13.80;99.90;;;;;;7406510;19;20260;-79
2023/05/20 08:17:41;;;;;;;0.00;0.00;;;14.00;99.90;;;;;;7405117;19;19926;-79
2023/05/20 08:20:11;;;;;;;0.00;0.00;;;14.00;99.90;;;;;;7404399;19;19922;-79
2023/05/20 08:22:40;;;;;;;0.00;0.00;;;14.10;99.90;;;;;;7403893;19;19955;-80
2023/05/20 08:25:13;;;;;;;0.00;0.00;;;14.00;99.90;;;;;;7404369;19;19914;-79
2023/05/20 08:27:42;;;;;;;0.00;0.00;;;14.20;99.90;;;;;;7405972;19;19985;-79
2023/05/20 08:30:12;;;;;;;0.00;0.00;;;14.20;99.90;;;;;;7403601;19;19935;-79
2023/05/20 08:32:41;;;;;;;0.10;0.10;;;14.20;99.90;;;;;;7405362;19;19925;-79
2023/05/20 08:35:11;;;;;;;0.00;0.00;;;14.30;99.90;;;;;;7406272;19;19974;-79
2023/05/20 08:37:40;;;;;;;0.00;0.00;;;14.40;99.90;;;;;;7404989;19;20300;-79
2023/05/20 08:40:14;;;;;;;0.00;0.00;;;14.20;99.90;;;;;;7405366;19;19970;-79
2023/05/20 08:42:47;;;;;;;0.00;0.00;;;14.50;99.90;;;;;;7406290;19;19915;-79
2023/05/20 08:45:19;;;;;;;0.00;0.00;;;14.40;99.90;;;;;;7403162;19;19911;-80
2023/05/20 08:47:49;;;;;;;0.00;0.00;;;14.60;99.90;;;;;;7405575;19;19922;-79
2023/05/20 08:50:18;;;;;;;0.00;0.00;;;14.70;99.90;;;;;;7405876;19;19919;-79
2023/05/20 08:52:50;;;;;;;0.32;0.32;;;14.90;99.90;;;;;;7404461;19;19926;-79
2023/05/20 08:55:32;;;;;;;0.00;0.00;;;14.70;99.90;;;;;;7404397;19;19906;-79
2023/05/20 08:58:01;;;;;;;0.00;0.00;;;14.80;99.90;;;;;;7403722;19;19927;-79
2023/05/20 09:00:30;;;;;;;0.00;0.00;;;15.00;99.90;;;;;;7404467;19;20280;-80
2023/05/20 09:03:02;;;;;;;0.05;0.05;;;14.90;99.90;;;;;;7404332;19;19945;-79
2023/05/20 09:05:32;;;;;;;0.17;0.17;;;14.90;99.90;;;;;;7403051;19;19919;-79
2023/05/20 09:08:08;;;;;;;0.00;0.00;;;15.00;99.90;;;;;;7404037;19;20345;-79
2023/05/20 09:10:40;;;;;;;0.00;0.00;;;15.00;99.90;;;;;;7405335;19;19933;-79
2023/05/20 09:13:11;;;;;;;0.00;0.00;;;14.90;99.90;;;;;;7402123;19;20295;-79
2023/05/20 09:15:40;;;;;;;0.00;0.00;;;15.20;99.90;;;;;;7404886;19;20289;-79
2023/05/20 09:18:10;;;;;;;0.00;0.00;;;15.40;99.90;;;;;;7402487;19;20349;-79
2023/05/20 09:20:40;;;;;;;0.00;0.00;;;15.40;99.90;;;;;;7403109;19;19947;-79
2023/05/20 09:23:11;;;;;;;0.00;0.00;;;15.40;99.90;;;;;;7403989;19;20493;-79
2023/05/20 09:25:42;;;;;;;0.00;0.00;;;15.40;99.90;;;;;;7401148;19;20353;-79
2023/05/20 09:28:11;;;;;;;0.00;0.00;;;15.70;99.90;;;;;;7402917;19;19910;-79
2023/05/20 09:30:40;;;;;;;0.00;0.00;;;15.80;99.90;;;;;;7404500;19;19990;-79
2023/05/20 09:33:10;;;;;;;0.00;0.00;;;15.80;99.90;;;;;;7404714;19;19925;-79
2023/05/20 09:35:39;;;;;;;0.00;0.00;;;15.90;99.90;;;;;;7404172;19;19927;-79
2023/05/20 09:38:09;;;;;;;0.00;0.00;;;15.90;99.90;;;;;;7403883;19;19918;-79
2023/05/20 09:40:39;;;;;;;0.00;0.00;;;16.00;99.90;;;;;;7404871;19;19982;-79
2023/05/20 09:43:12;;;;;;;0.00;0.00;;;16.20;99.90;;;;;;7403221;19;19919;-80
2023/05/20 09:45:41;;;;;;;0.10;0.10;;;16.30;99.90;;;;;;7401265;19;20400;-79
2023/05/20 09:48:12;;;;;;;0.00;0.00;;;16.20;99.90;;;;;;7402478;19;19986;-80
2023/05/20 09:50:42;;;;;;;0.00;0.00;;;16.60;99.90;;;;;;7402671;19;19987;-79
2023/05/20 09:53:12;;;;;;;0.00;0.00;;;16.60;99.90;;;;;;7403814;19;19962;-80
2023/05/20 09:55:41;;;;;;;0.00;0.00;;;16.70;99.90;;;;;;7402531;19;19943;-80
2023/05/20 09:58:15;;;;;;;0.00;0.00;;;16.80;99.90;;;;;;7402723;19;20336;-80
2023/05/20 10:00:45;;;;;;;0.00;0.00;;;17.00;99.90;;;;;;7401824;19;19934;-80
2023/05/20 10:03:14;;;;;;;0.08;0.05;;;16.90;99.90;;;;;;7403885;19;19922;-80
2023/05/20 10:05:48;;;;;;;0.00;0.00;;;17.00;99.90;;;;;;7402318;19;19920;-80
2023/05/20 10:08:34;;;;;;;0.00;0.00;;;17.10;99.90;;;;;;7403671;19;19929;-80
2023/05/20 10:11:13;;;;;;;0.00;0.00;;;17.10;99.90;;;;;;7402402;19;20263;-80
2023/05/20 10:14:11;;;;;;;0.00;0.00;;;17.10;99.90;;;;;;7403488;19;19918;-80
2023/05/20 10:16:47;;;;;;;0.00;0.00;;;17.10;99.90;;;;;;7403688;19;19918;-80
2023/05/20 10:19:28;;;;;;;0.00;0.00;;;16.90;99.90;;;;;;7402831;19;20037;-80
2023/05/20 10:22:02;;;;;;;0.10;0.10;;;17.10;99.90;;;;;;7404856;19;19982;-80
2023/05/20 10:24:33;;;;;;;0.00;0.00;;;17.10;99.90;;;;;;7396259;19;19943;-80
2023/05/20 10:27:04;;;;;;;0.00;0.00;;;17.30;99.90;;;;;;7403130;19;20317;-80
2023/05/20 10:29:47;;;;;;;0.30;0.08;;;17.50;99.90;;;;;;7400711;19;20279;-80
2023/05/20 10:32:26;;;;;;;0.10;0.10;;;17.60;99.90;;;;;;7402953;19;20303;-80
2023/05/20 10:35:00;;;;;;;0.00;0.00;;;17.70;99.90;;;;;;7402395;19;20386;-80
2023/05/20 10:37:31;;;;;;;0.55;0.38;;;18.00;99.90;;;;;;7402630;19;20409;-80
2023/05/20 10:40:10;;;;;;;0.00;0.00;;;18.10;99.90;;;;;;7401204;19;19914;-80
2023/05/20 10:42:40;;;;;;;0.25;0.10;;;18.00;99.90;;;;;;7402045;19;19919;-80
2023/05/20 10:45:13;;;;;;;0.00;0.00;;;18.20;99.90;;;;;;7400368;19;19915;-80
2023/05/20 10:47:55;;;;;;;0.00;0.00;;;18.20;99.90;;;;;;7402398;19;19970;-80
2023/05/20 10:50:30;;;;;;;0.00;0.00;;;18.40;99.90;;;;;;7402058;19;19950;-80
2023/05/20 10:53:06;;;;;;;0.03;0.03;;;18.30;99.90;;;;;;7402770;19;19918;-80
2023/05/20 10:55:40;;;;;;;0.38;0.25;;;18.30;99.90;;;;;;7401779;19;19918;-80
2023/05/20 10:58:09;;;;;;;0.00;0.00;;;18.10;99.90;;;;;;7402198;19;19922;-80
2023/05/20 11:00:41;;;;;;;0.00;0.00;;;18.30;99.90;;;;;;7401861;19;19934;-80
2023/05/20 11:03:10;;;;;;;;;;;18.10;99.90;;;;;;7404101;19;20355;-79
2023/05/20 11:05:41;;;;;;;0.00;0.00;;;18.10;99.90;;;;;;7400255;19;19914;-80
2023/05/20 11:08:11;;;;;;;0.10;0.10;;;18.20;99.90;;;;;;7402499;19;19926;-81
2023/05/20 11:10:40;;;;;;;0.00;0.00;;;18.40;99.90;;;;;;7401671;19;20372;-80
2023/05/20 11:13:09;;;;;;;0.00;0.00;;;18.30;99.90;;;;;;7401330;19;19918;-80
2023/05/20 11:15:41;;;;;;;2.63;0.10;;;18.30;99.90;;;;;;7401681;19;19915;-80
2023/05/20 11:18:14;;;;;;;0.00;0.00;;;18.30;99.90;;;;;;7399208;19;20002;-80
2023/05/20 11:20:43;;;;;;;0.30;0.30;;;18.20;99.90;;;;;;7400817;19;20362;-80
2023/05/20 11:23:15;;;;;;;0.00;0.00;;;18.10;99.90;;;;;;7400196;19;19926;-80
2023/05/20 11:25:44;;;;;;;0.30;0.30;;;18.10;99.90;;;;;;7399205;19;20031;-78
2023/05/20 11:28:15;;;;;;;0.00;0.00;;;18.30;99.90;;;;;;7400577;19;19998;-79
2023/05/20 11:30:47;;;;;;;0.00;0.00;;;18.50;99.90;;;;;;7401570;19;19925;-79
2023/05/20 11:33:17;;;;;;;0.00;0.00;;;18.60;99.90;;;;;;7401153;19;19929;-78
2023/05/20 11:35:48;;;;;;;0.00;0.00;;;18.60;99.90;;;;;;7403259;19;19994;-78
2023/05/20 11:38:17;;;;;;;0.20;0.20;;;18.50;99.90;;;;;;7408154;19;19939;-80
2023/05/20 11:40:47;;;;;;;0.00;0.00;;;18.60;99.90;;;;;;7407520;19;19933;-80
2023/05/20 11:43:17;;;;;;;0.00;0.00;;;19.10;99.90;;;;;;7406954;19;19974;-80
2023/05/20 11:45:53;;;;;;;0.00;0.00;;;19.10;99.90;;;;;;7405580;19;19915;-80
2023/05/20 11:48:23;;;;;;;0.00;0.00;;;19.40;99.90;;;;;;7406684;19;19922;-79
2023/05/20 11:50:54;;;;;;;0.00;0.00;;;19.20;99.90;;;;;;7407107;19;19925;-80
2023/05/20 11:53:25;;;;;;;0.35;0.35;;;19.20;99.90;;;;;;7405879;19;19936;-79
2023/05/20 11:55:57;;;;;;;0.00;0.00;;;19.20;99.90;;;;;;7406654;19;19926;-80
2023/05/20 11:58:27;;;;;;;0.00;0.00;;;19.20;99.90;;;;;;7405116;19;20275;-80
2023/05/20 12:01:00;;;;;;;0.30;0.30;;;19.60;99.90;;;;;;7406608;19;19919;-80
2023/05/20 12:03:30;;;;;;;0.00;0.00;;;19.60;99.90;;;;;;7405281;19;19914;-79
2023/05/20 12:06:02;;;;;;;0.00;0.00;;;20.10;99.90;;;;;;7405534;19;19922;-80
2023/05/20 12:08:31;;;;;;;0.10;0.10;;;20.10;99.90;;;;;;7406916;19;19910;-80
2023/05/20 12:11:00;;;;;;;0.00;0.00;;;20.30;99.90;;;;;;7406665;19;19978;-79
2023/05/20 12:13:29;;;;;;;0.00;0.00;;;20.40;99.90;;;;;;7406254;19;20356;-80
2023/05/20 12:16:01;;;;;;;0.30;0.30;;;20.40;99.90;;;;;;7406042;19;19958;-80
2023/05/20 12:18:30;;;;;;;0.35;0.35;;;20.30;99.90;;;;;;7403622;19;19939;-79
2023/05/20 12:20:59;;;;;;;0.13;0.13;;;20.20;99.90;;;;;;7404149;19;19915;-79
2023/05/20 12:23:29;;;;;;;0.08;0.00;;;20.00;99.90;;;;;;7405507;19;20341;-79
2023/05/20 12:25:58;;;;;;;0.00;0.00;;;19.90;99.90;;;;;;7404894;19;19987;-79
2023/05/20 12:28:27;;;;;;;0.10;0.10;;;19.80;99.90;;;;;;7404695;19;19943;-79
2023/05/20 12:30:56;;;;;;;0.00;0.00;;;19.80;99.90;;;;;;7404783;19;19922;-79
2023/05/20 12:33:27;;;;;;;0.30;0.30;;;20.00;99.90;;;;;;7404293;19;19977;-78
2023/05/20 12:35:56;;;;;;;;;;;20.20;99.90;;;;;;7407516;19;19978;-79
2023/05/20 12:38:25;;;;;;;;;;;20.30;99.90;;;;;;7409069;19;19919;-79
2023/05/20 12:40:54;;;;;;;0.00;0.00;;;20.10;99.90;;;;;;7406179;19;19938;-79
2023/05/20 12:43:23;;;;;;;0.00;0.00;;;19.90;99.90;;;;;;7406241;19;19933;-79
2023/05/20 12:45:52;;;;;;;0.25;0.03;;;20.10;99.90;;;;;;7402921;19;19986;-79
2023/05/20 12:48:21;;;;;;;0.00;0.00;;;20.50;99.90;;;;;;7404298;19;19982;-79
2023/05/20 12:50:53;;;;;;;0.00;0.00;;;20.40;99.90;;;;;;7405204;19;19977;-79
2023/05/20 12:53:23;;;;;;;0.03;0.03;;;20.70;99.90;;;;;;7402567;19;19914;-79
2023/05/20 12:55:52;;;;;;;1.00;0.22;;;20.90;99.90;;;;;;7405777;19;19922;-80
2023/05/20 12:58:21;;;;;;;0.00;0.00;;;21.00;99.90;;;;;;7401556;19;19943;-79
2023/05/20 13:00:50;;;;;;;0.00;0.00;;;21.30;99.90;;;;;;7405368;19;19932;-79
2023/05/20 13:03:19;;;;;;;0.00;0.00;;;21.60;99.90;;;;;;7403747;19;19919;-80